Search for airport 
image banner adimage banner adimage banner ad
image banner ad

PS29 - Sugan Pond

Located in Solebury, United States

ICAO - PS29, IATA -

Data provided by Airmate  

General information

Coordinates: N40°22'30" W74°59'29"
Elevation is 320 feet MSL.
Magnetic variation is -12° East
View others Airports in Pennsylvania

Operational data

Special qualification required
Current time UTC:
Current local time:
Weather at : KDYL - Doylestown ( 12 km )
METAR: KDYL 132054Z AUTO 00000KT 10SM OVC039 24/18 A2989 RMK AO2 SLP117 T02390178 58005 $
View NOTAMs / SUP AIP / TFR affecting this airport [VIEW]
Communications frequencies: [VIEW]

Runways:

Airport contact information

Address: Solebury United States

Satellite view of PS29